UWWW 210938Z 19005MPS 150V230 9999 TS SCT033CB 32/14 Q0999 R15/63D TEMPO -TSRA BKN020CB RMK QFE738/0984
QNH:(hPa/inHg/mmHg)999 / 29.5 / 749
QFE:(hPa/inHg/mmHg)981 / 28.98 / 736
Temperature32
Dew Point14
Visibility> 10000
WeatherThunderstorm;Light Thunderstorm Rain
Cloud CoverSCT (3300);
BKN (2000);
Transition Altitude4000 ft.
Transition LevelFL60
SQUAWK